TimeCDT,TemperatureF,Dew PointF,Humidity,Sea Level PressureIn,VisibilityMPH,Wind Direction,Wind SpeedMPH,Gust SpeedMPH,PrecipitationIn,Events,Conditions,WindDirDegrees,DateUTC
1:56 AM,42.1,39.9,92,29.86,10.0,West,3.5,-,N/A,,Clear,280,2012-10-02 06:56:00
2:56 AM,39.9,37.9,93,29.85,10.0,WNW,3.5,-,N/A,,Clear,290,2012-10-02 07:56:00
3:56 AM,42.1,41.0,96,29.86,8.0,Calm,Calm,-,N/A,,Clear,0,2012-10-02 08:56:00
4:56 AM,42.1,41.0,96,29.88,7.0,West,4.6,-,N/A,,Clear,260,2012-10-02 09:56:00
5:56 AM,39.9,37.9,93,29.88,7.0,Calm,Calm,-,N/A,,Clear,0,2012-10-02 10:56:00
6:56 AM,39.0,37.0,93,29.90,7.0,SE,3.5,-,N/A,,Clear,140,2012-10-02 11:56:00
7:56 AM,43.0,41.0,93,29.92,6.0,Calm,Calm,-,N/A,,Clear,0,2012-10-02 12:56:00
8:56 AM,55.0,48.0,77,29.93,9.0,Calm,Calm,-,N/A,,Clear,0,2012-10-02 13:56:00
9:56 AM,60.1,48.9,67,29.94,10.0,East,8.1,-,N/A,,Clear,80,2012-10-02 14:56:00
10:56 AM,63.0,48.9,60,29.92,9.0,East,8.1,-,N/A,,Clear,80,2012-10-02 15:56:00
11:56 AM,64.9,50.0,58,29.91,10.0,NE,3.5,-,N/A,,Clear,40,2012-10-02 16:56:00
12:44 PM,68.0,48.2,49,29.91,4.0,ESE,3.5,-,N/A,,Haze,120,2012-10-02 17:44:00
12:56 PM,69.1,48.9,49,29.90,10.0,Variable,4.6,-,N/A,,Clear,0,2012-10-02 17:56:00
1:42 PM,69.8,48.2,46,29.89,5.0,Variable,3.5,-,N/A,,Haze,0,2012-10-02 18:42:00
1:56 PM,69.1,48.9,49,29.88,9.0,South,3.5,-,N/A,,Clear,190,2012-10-02 18:56:00
3:31 PM,71.6,48.2,43,29.86,8.0,Variable,3.5,-,N/A,,Partly Cloudy,0,2012-10-02 20:31:00
3:56 PM,73.0,48.0,41,29.85,2.5,East,6.9,-,N/A,,Haze,100,2012-10-02 20:56:00
4:06 PM,71.6,48.2,43,29.86,10.0,SE,5.8,-,N/A,,Clear,130,2012-10-02 21:06:00
4:56 PM,72.0,46.9,41,29.85,10.0,SSE,4.6,-,N/A,,Clear,150,2012-10-02 21:56:00
5:56 PM,71.1,46.9,42,29.86,10.0,East,5.8,-,N/A,,Clear,80,2012-10-02 22:56:00
6:56 PM,62.1,46.9,58,29.87,10.0,Calm,Calm,-,N/A,,Clear,0,2012-10-02 23:56:00
9:56 PM,48.0,43.0,83,29.91,10.0,Calm,Calm,-,N/A,,Clear,0,2012-10-03 02:56:00
10:56 PM,48.0,42.1,80,29.92,9.0,East,3.5,-,N/A,,Clear,100,2012-10-03 03:56:00
11:56 PM,46.0,42.1,86,29.92,7.0,Calm,Calm,-,N/A,,Clear,0,2012-10-03 04:56:00